Time;durP1;ratioP1;P1;durP2;ratioP2;P2;SDS_P1;SDS_P2;PMS_P1;PMS_P2;Temp;Humidity;BMP_temperature;BMP_pressure;BME280_temperature;BME280_humidity;BME280_pressure;Samples;Min_cycle;Max_cycle;Signal;HPM_P1;HPM_P2
2021/12/31 00:02:12;;;;;;;119.47;108.38;;;13.50;99.90;;;;;;5014764;28;20058;-79
2021/12/31 00:04:39;;;;;;;118.72;107.63;;;13.60;99.90;;;;;;5029846;28;20074;-80
2021/12/31 00:07:07;;;;;;;121.03;109.90;;;13.50;99.90;;;;;;4997895;28;20050;-79
2021/12/31 00:09:33;;;;;;;119.93;108.70;;;13.50;99.90;;;;;;5016538;28;20852;-79
2021/12/31 00:12:02;;;;;;;118.38;107.38;;;13.50;99.90;;;;;;5033205;28;20081;-79
2021/12/31 00:18:50;;;;;;;115.97;104.88;;;13.60;99.70;;;;;;5034297;28;20092;-79
2021/12/31 00:21:17;;;;;;;115.35;104.55;;;13.60;99.80;;;;;;5016518;28;20061;-79
2021/12/31 00:23:45;;;;;;;118.95;107.65;;;13.60;99.80;;;;;;5000068;28;20050;-80
2021/12/31 00:26:12;;;;;;;118.22;106.90;;;13.60;99.70;;;;;;5016303;28;20586;-79
2021/12/31 00:28:39;;;;;;;118.07;106.95;;;13.60;99.70;;;;;;5016194;28;20060;-79
2021/12/31 00:31:07;;;;;;;118.38;107.07;;;13.60;99.60;;;;;;5016602;28;20201;-79
2021/12/31 00:33:34;;;;;;;116.43;105.00;;;13.60;99.60;;;;;;5034038;28;20817;-79
2021/12/31 00:36:02;;;;;;;118.07;106.47;;;13.70;99.50;;;;;;5016553;28;20148;-79
2021/12/31 00:38:29;;;;;;;116.70;105.93;;;13.60;99.60;;;;;;4999370;28;20576;-79
2021/12/31 00:40:56;;;;;;;116.15;105.20;;;13.60;99.60;;;;;;5016227;28;20598;-79
2021/12/31 00:43:23;;;;;;;117.18;105.93;;;13.70;99.50;;;;;;5016029;28;20050;-79
2021/12/31 00:45:49;;;;;;;117.10;106.10;;;13.60;99.60;;;;;;5016060;28;20142;-79
2021/12/31 00:48:17;;;;;;;119.78;107.70;;;13.60;99.60;;;;;;5015952;28;20057;-79
2021/12/31 00:50:44;;;;;;;117.43;106.10;;;13.60;99.60;;;;;;5016158;28;20046;-79
2021/12/31 00:53:12;;;;;;;117.88;106.88;;;13.70;99.60;;;;;;4998697;28;20046;-79
2021/12/31 00:55:39;;;;;;;119.90;108.32;;;13.70;99.50;;;;;;5015668;28;20062;-79
2021/12/31 00:58:07;;;;;;;119.32;107.97;;;13.70;99.50;;;;;;5015884;28;20066;-79
2021/12/31 01:00:34;;;;;;;120.20;108.97;;;13.70;99.40;;;;;;5015803;28;20060;-79
2021/12/31 01:03:01;;;;;;;117.25;105.88;;;13.70;99.40;;;;;;5015860;28;20052;-79
2021/12/31 01:05:28;;;;;;;119.25;107.85;;;13.70;99.50;;;;;;5033826;28;20061;-79
2021/12/31 01:07:56;;;;;;;117.95;106.65;;;13.70;99.50;;;;;;5033644;28;20128;-79
2021/12/31 01:10:27;;;;;;;119.15;107.60;;;13.70;99.40;;;;;;5033401;28;20056;-79
2021/12/31 01:12:54;;;;;;;118.18;106.88;;;13.70;99.40;;;;;;5015750;28;20058;-79
2021/12/31 01:15:33;;;;;;;119.55;107.93;;;13.70;99.40;;;;;;4999359;28;20065;-79
2021/12/31 01:18:18;;;;;;;119.38;108.10;;;13.70;99.40;;;;;;4998958;28;20049;-79
2021/12/31 01:20:45;;;;;;;116.97;105.70;;;13.70;99.40;;;;;;5015845;28;20563;-79
2021/12/31 01:23:15;;;;;;;115.65;104.82;;;13.70;99.50;;;;;;5015694;28;20093;-79
2021/12/31 01:25:43;;;;;;;116.57;105.68;;;13.70;99.30;;;;;;5033194;28;20049;-79
2021/12/31 01:28:11;;;;;;;120.15;108.63;;;13.70;99.30;;;;;;5015313;28;20054;-79
2021/12/31 01:30:38;;;;;;;118.28;107.15;;;13.70;99.40;;;;;;5015791;28;20522;-79
2021/12/31 01:33:05;;;;;;;118.50;107.35;;;13.70;99.40;;;;;;5015222;28;20171;-79
2021/12/31 01:35:32;;;;;;;117.38;106.07;;;13.80;99.40;;;;;;4999335;28;20594;-79
2021/12/31 01:37:59;;;;;;;118.63;107.07;;;13.70;99.40;;;;;;5015073;28;20786;-79
2021/12/31 01:40:26;;;;;;;117.85;106.97;;;13.70;99.30;;;;;;5015893;28;20056;-79
2021/12/31 01:42:54;;;;;;;121.70;109.72;;;13.80;99.30;;;;;;5015050;28;20607;-78
2021/12/31 01:45:23;;;;;;;118.47;107.28;;;13.80;99.30;;;;;;5015271;28;20060;-78
2021/12/31 01:51:00;;;;;;;118.15;106.75;;;13.80;99.20;;;;;;5015285;28;20055;-79
2021/12/31 01:53:27;;;;;;;118.25;107.10;;;13.80;99.30;;;;;;5014982;28;20046;-78
2021/12/31 01:55:58;;;;;;;119.13;107.88;;;13.90;99.30;;;;;;5015400;28;20061;-78
2021/12/31 01:58:27;;;;;;;117.35;106.75;;;13.80;99.20;;;;;;5014996;28;20072;-79
2021/12/31 02:00:55;;;;;;;119.13;108.03;;;13.80;99.20;;;;;;5015311;28;20050;-79
2021/12/31 02:03:24;;;;;;;120.22;108.68;;;13.80;99.30;;;;;;5015536;28;20073;-79
2021/12/31 02:05:51;;;;;;;120.00;108.68;;;13.80;99.40;;;;;;5001917;28;20514;-79
2021/12/31 02:08:18;;;;;;;118.80;107.93;;;13.80;99.40;;;;;;5018225;28;20050;-79
2021/12/31 02:10:45;;;;;;;118.95;108.05;;;13.80;99.40;;;;;;5035034;28;20103;-79
2021/12/31 02:13:14;;;;;;;118.78;107.97;;;13.80;99.40;;;;;;5018289;28;20054;-79
2021/12/31 02:15:43;;;;;;;117.47;106.88;;;13.80;99.50;;;;;;5036267;28;20053;-79
2021/12/31 02:18:10;;;;;;;119.55;108.72;;;13.80;99.50;;;;;;5001665;28;20080;-79
2021/12/31 02:20:42;;;;;;;119.50;108.40;;;13.80;99.50;;;;;;5018487;28;20600;-79
2021/12/31 02:23:14;;;;;;;119.28;108.20;;;13.90;99.50;;;;;;5018139;28;20719;-78
2021/12/31 02:25:42;;;;;;;119.03;108.13;;;13.80;99.50;;;;;;5018678;28;20077;-79
2021/12/31 02:28:09;;;;;;;120.80;109.72;;;13.80;99.70;;;;;;5017995;28;20065;-79
2021/12/31 02:30:36;;;;;;;120.13;109.40;;;13.80;99.60;;;;;;5018473;28;20058;-79
2021/12/31 02:33:04;;;;;;;120.47;109.32;;;13.80;99.60;;;;;;5018065;28;20066;-79
2021/12/31 02:35:31;;;;;;;120.55;109.13;;;13.90;99.60;;;;;;5035536;28;20070;-80
2021/12/31 02:38:00;;;;;;;119.55;108.80;;;13.80;99.70;;;;;;5017513;28;20097;-79
2021/12/31 02:40:28;;;;;;;120.15;108.97;;;13.80;99.80;;;;;;5017683;28;20038;-78
2021/12/31 02:42:55;;;;;;;119.50;108.65;;;13.80;99.90;;;;;;5016737;28;20058;-79
2021/12/31 02:45:29;;;;;;;120.57;109.90;;;13.80;99.80;;;;;;5017634;28;20060;-79
2021/12/31 02:47:58;;;;;;;119.72;108.93;;;13.80;99.80;;;;;;5017990;28;20076;-79
2021/12/31 02:50:33;;;;;;;120.90;109.93;;;13.80;99.80;;;;;;5017822;28;20066;-79
2021/12/31 02:53:03;;;;;;;119.35;108.47;;;13.90;99.80;;;;;;5017941;28;20555;-78
2021/12/31 02:55:31;;;;;;;120.65;109.85;;;13.90;99.70;;;;;;5017522;28;20146;-79
2021/12/31 02:57:58;;;;;;;120.55;109.65;;;13.90;99.80;;;;;;5017587;28;20121;-78
2021/12/31 03:00:27;;;;;;;120.43;109.63;;;13.90;99.80;;;;;;5018059;28;20046;-78
2021/12/31 03:02:55;;;;;;;121.03;110.07;;;13.90;99.80;;;;;;5017698;28;20054;-79
2021/12/31 03:05:24;;;;;;;121.07;109.93;;;13.90;99.80;;;;;;5017744;28;20061;-79
2021/12/31 03:07:52;;;;;;;121.13;109.97;;;13.90;99.80;;;;;;5017328;28;20050;-79
2021/12/31 03:10:22;;;;;;;120.90;110.20;;;13.90;99.80;;;;;;5017501;28;20053;-79
2021/12/31 03:12:51;;;;;;;120.97;110.00;;;13.90;99.80;;;;;;5017607;28;20081;-79
2021/12/31 03:15:18;;;;;;;120.95;110.30;;;13.90;99.90;;;;;;5016965;28;20050;-79
2021/12/31 03:17:46;;;;;;;123.20;112.13;;;13.90;99.80;;;;;;5017192;28;20137;-79
2021/12/31 03:20:16;;;;;;;123.55;112.43;;;14.00;99.70;;;;;;5017176;28;20050;-79
2021/12/31 03:22:44;;;;;;;122.15;111.10;;;13.90;99.70;;;;;;5017315;28;20521;-79
2021/12/31 03:25:12;;;;;;;122.80;111.82;;;13.90;99.70;;;;;;5016988;28;20053;-79
2021/12/31 03:27:41;;;;;;;122.03;110.85;;;14.00;99.80;;;;;;5017238;28;20559;-79
2021/12/31 03:30:10;;;;;;;122.13;110.88;;;14.00;99.60;;;;;;5017024;28;20748;-79
2021/12/31 03:32:37;;;;;;;119.15;108.50;;;14.00;99.60;;;;;;5017128;28;20050;-79
2021/12/31 03:35:04;;;;;;;119.32;108.10;;;14.00;99.60;;;;;;5016913;28;20058;-79
2021/12/31 03:37:32;;;;;;;119.38;108.60;;;14.10;99.60;;;;;;5017022;28;20104;-79
2021/12/31 03:39:59;;;;;;;119.28;108.40;;;14.10;99.60;;;;;;5035014;28;20065;-78
2021/12/31 03:42:26;;;;;;;118.78;108.28;;;14.10;99.50;;;;;;5034647;28;20054;-78
2021/12/31 03:44:54;;;;;;;119.55;108.65;;;14.10;99.50;;;;;;5017002;28;20053;-79
2021/12/31 03:47:21;;;;;;;119.68;109.07;;;14.10;99.50;;;;;;5016657;28;20180;-79
2021/12/31 03:49:48;;;;;;;119.05;108.40;;;14.10;99.50;;;;;;5017174;28;20432;-78
2021/12/31 03:52:15;;;;;;;119.10;108.32;;;14.10;99.50;;;;;;5016843;28;20120;-79
2021/12/31 03:54:42;;;;;;;119.85;109.20;;;14.10;99.60;;;;;;5016932;28;20050;-78
2021/12/31 03:57:09;;;;;;;118.57;107.88;;;14.10;99.60;;;;;;5016621;28;20061;-78
2021/12/31 03:59:36;;;;;;;119.15;108.47;;;14.10;99.60;;;;;;5016812;28;20053;-79
2021/12/31 04:02:04;;;;;;;119.45;108.82;;;14.10;99.60;;;;;;5000430;28;20061;-78
2021/12/31 04:04:31;;;;;;;119.70;108.82;;;14.00;99.60;;;;;;5016381;28;20052;-78
2021/12/31 04:06:59;;;;;;;120.55;109.53;;;14.10;99.60;;;;;;5016501;28;20125;-78
2021/12/31 04:09:26;;;;;;;120.47;109.80;;;14.00;99.60;;;;;;5016512;28;20056;-79
2021/12/31 04:11:52;;;;;;;119.63;108.95;;;14.00;99.60;;;;;;5033213;28;20132;-78
2021/12/31 04:14:19;;;;;;;119.15;108.45;;;14.10;99.60;;;;;;5034561;28;20054;-78
2021/12/31 04:16:46;;;;;;;122.38;111.50;;;14.10;99.60;;;;;;5016008;28;20128;-79
2021/12/31 04:19:15;;;;;;;122.20;111.43;;;14.10;99.60;;;;;;5016101;28;20528;-79
2021/12/31 04:21:43;;;;;;;120.82;109.75;;;14.10;99.60;;;;;;5016587;28;20074;-78
2021/12/31 04:24:16;;;;;;;121.22;110.50;;;14.10;99.50;;;;;;5016122;28;20050;-78
2021/12/31 04:26:43;;;;;;;121.40;110.38;;;14.10;99.60;;;;;;5014958;28;20072;-78
2021/12/31 04:29:10;;;;;;;122.03;111.15;;;14.10;99.60;;;;;;5016089;28;20100;-78
2021/12/31 04:31:37;;;;;;;120.85;109.97;;;14.10;99.60;;;;;;5015915;28;20046;-79
2021/12/31 04:34:06;;;;;;;121.28;110.35;;;14.10;99.60;;;;;;5016456;28;20058;-78
2021/12/31 04:36:35;;;;;;;120.10;109.40;;;14.10;99.60;;;;;;5015797;28;20053;-78
2021/12/31 04:39:02;;;;;;;119.15;108.15;;;14.10;99.60;;;;;;5016051;28;20064;-78
2021/12/31 04:41:29;;;;;;;120.32;109.53;;;14.00;99.60;;;;;;5016020;28;20035;-78
2021/12/31 04:43:56;;;;;;;120.57;109.85;;;14.00;99.60;;;;;;5015679;28;20050;-79
2021/12/31 04:46:23;;;;;;;119.20;108.43;;;14.00;99.60;;;;;;5016085;28;20092;-78
2021/12/31 04:48:50;;;;;;;120.97;110.30;;;14.10;99.60;;;;;;5015910;28;20148;-78
2021/12/31 04:51:17;;;;;;;118.68;108.18;;;14.10;99.60;;;;;;5015749;28;20058;-78
2021/12/31 04:53:45;;;;;;;118.93;108.40;;;14.00;99.60;;;;;;5016065;28;20058;-79
2021/12/31 04:56:12;;;;;;;119.97;109.32;;;14.10;99.60;;;;;;5015727;28;20056;-78
2021/12/31 04:58:39;;;;;;;119.95;109.07;;;14.10;99.50;;;;;;5015598;28;20057;-78
2021/12/31 05:01:06;;;;;;;119.10;108.50;;;14.10;99.50;;;;;;5016222;28;20132;-79
2021/12/31 05:03:33;;;;;;;119.38;108.68;;;14.00;99.50;;;;;;5016027;28;20054;-78
2021/12/31 05:06:00;;;;;;;119.85;109.15;;;14.10;99.50;;;;;;5015869;28;20057;-78
2021/12/31 05:08:27;;;;;;;118.63;108.32;;;14.10;99.40;;;;;;5015783;28;20061;-78
2021/12/31 05:14:27;;;;;;;118.55;107.95;;;14.10;99.30;;;;;;5015606;28;20042;-78
2021/12/31 05:16:55;;;;;;;119.05;108.45;;;14.10;99.40;;;;;;5015479;28;20229;-79
2021/12/31 05:19:21;;;;;;;120.13;109.25;;;14.10;99.30;;;;;;5015506;28;20061;-78
2021/12/31 05:21:49;;;;;;;118.05;107.47;;;14.10;99.30;;;;;;5015609;28;20792;-79
2021/12/31 05:24:16;;;;;;;120.50;109.75;;;14.10;99.10;;;;;;5015701;28;20065;-78
2021/12/31 05:26:43;;;;;;;120.50;109.90;;;14.10;99.20;;;;;;5015633;28;20149;-78
2021/12/31 05:29:10;;;;;;;117.70;107.30;;;14.20;99.10;;;;;;5015667;28;20054;-78
2021/12/31 05:31:39;;;;;;;114.95;104.65;;;14.10;99.10;;;;;;5015537;28;20049;-78
2021/12/31 05:34:06;;;;;;;115.28;104.97;;;14.20;99.10;;;;;;5015421;28;20080;-78
2021/12/31 05:36:33;;;;;;;115.90;105.65;;;14.10;99.10;;;;;;5033134;28;20141;-79
2021/12/31 05:39:00;;;;;;;113.07;103.03;;;14.10;99.10;;;;;;5017588;28;20060;-78
2021/12/31 05:41:28;;;;;;;115.38;104.97;;;14.20;98.90;;;;;;5019302;28;20050;-78
2021/12/31 05:43:55;;;;;;;115.55;105.22;;;14.20;98.90;;;;;;5018311;28;20057;-78
2021/12/31 05:46:22;;;;;;;115.53;105.20;;;14.10;98.90;;;;;;5018630;28;20132;-78
2021/12/31 05:48:53;;;;;;;113.95;103.85;;;14.20;98.80;;;;;;5018964;28;20077;-78
2021/12/31 05:51:20;;;;;;;114.97;104.63;;;14.20;98.70;;;;;;5001957;28;20046;-78
2021/12/31 05:53:47;;;;;;;113.82;103.63;;;14.20;98.60;;;;;;5018488;28;20531;-78
2021/12/31 05:56:14;;;;;;;114.68;104.57;;;14.20;98.60;;;;;;5018690;28;20152;-78
2021/12/31 05:58:41;;;;;;;114.90;104.63;;;14.20;98.60;;;;;;5018407;28;20050;-78
2021/12/31 06:01:08;;;;;;;116.60;106.20;;;14.20;98.60;;;;;;5018575;28;20046;-78
2021/12/31 06:03:35;;;;;;;115.43;105.32;;;14.20;98.50;;;;;;5018572;28;20062;-78
2021/12/31 06:06:04;;;;;;;116.53;106.22;;;14.20;98.40;;;;;;5002136;28;20149;-78
2021/12/31 06:08:32;;;;;;;115.75;105.45;;;14.10;98.50;;;;;;5018141;28;20060;-78
2021/12/31 06:10:59;;;;;;;116.00;105.80;;;14.10;98.40;;;;;;5001807;28;20046;-78
2021/12/31 06:13:27;;;;;;;114.47;104.25;;;14.10;98.40;;;;;;5002386;28;20170;-78
2021/12/31 06:15:57;;;;;;;115.13;104.95;;;14.10;98.40;;;;;;5018302;28;20056;-78
2021/12/31 06:18:25;;;;;;;114.82;104.60;;;14.10;98.30;;;;;;5036160;28;20061;-78
2021/12/31 06:20:53;;;;;;;115.43;105.13;;;14.10;98.30;;;;;;5018354;28;20528;-78
2021/12/31 06:23:21;;;;;;;114.60;104.40;;;14.00;98.30;;;;;;5017991;28;20144;-78
2021/12/31 06:25:48;;;;;;;116.57;105.97;;;14.00;98.40;;;;;;5018732;28;20068;-78
2021/12/31 06:28:15;;;;;;;115.43;105.03;;;14.00;98.40;;;;;;5001590;28;20518;-78
2021/12/31 06:30:42;;;;;;;114.43;104.28;;;14.00;98.40;;;;;;5036336;28;20058;-78
2021/12/31 06:33:09;;;;;;;113.60;103.47;;;14.00;98.30;;;;;;5001711;28;20050;-78
2021/12/31 06:35:36;;;;;;;114.18;103.97;;;14.00;98.30;;;;;;5017997;28;20058;-78
2021/12/31 06:38:04;;;;;;;115.07;104.93;;;14.00;98.30;;;;;;5017584;28;20137;-78
2021/12/31 06:40:34;;;;;;;113.22;103.10;;;14.00;98.20;;;;;;5018080;28;20060;-78
2021/12/31 06:43:01;;;;;;;112.85;102.72;;;14.00;98.30;;;;;;5017535;28;20056;-78
2021/12/31 06:45:28;;;;;;;114.82;104.43;;;14.00;98.30;;;;;;5017625;28;20582;-78
2021/12/31 06:47:55;;;;;;;113.03;103.13;;;13.90;98.30;;;;;;5017536;28;20222;-78
2021/12/31 06:50:23;;;;;;;112.80;102.72;;;13.90;98.30;;;;;;5016773;28;20047;-78
2021/12/31 06:52:50;;;;;;;111.45;101.65;;;13.80;98.40;;;;;;5017776;28;20133;-78
2021/12/31 06:55:17;;;;;;;114.75;104.50;;;13.80;98.40;;;;;;5017700;28;20121;-78
2021/12/31 06:57:46;;;;;;;113.93;103.97;;;13.80;98.30;;;;;;5001074;28;20064;-78
2021/12/31 07:00:14;;;;;;;113.10;103.10;;;13.80;98.30;;;;;;5017468;28;20045;-78
2021/12/31 07:02:41;;;;;;;112.78;102.78;;;13.80;98.30;;;;;;5035213;28;20125;-78
2021/12/31 07:05:08;;;;;;;112.05;102.05;;;13.80;98.30;;;;;;5035449;28;20065;-78
2021/12/31 07:07:35;;;;;;;112.05;102.07;;;13.80;98.40;;;;;;5017298;28;20134;-78
2021/12/31 07:10:03;;;;;;;112.88;102.70;;;13.70;98.30;;;;;;5017582;28;20053;-78
2021/12/31 07:12:30;;;;;;;112.13;102.25;;;13.70;98.30;;;;;;5000831;28;20077;-78
2021/12/31 07:14:59;;;;;;;112.63;102.53;;;13.70;98.40;;;;;;5017379;28;20057;-78
2021/12/31 07:17:28;;;;;;;113.88;103.97;;;13.70;98.40;;;;;;5000487;28;20141;-78
2021/12/31 07:19:55;;;;;;;116.95;106.55;;;13.70;98.40;;;;;;5017076;28;20058;-78
2021/12/31 07:22:22;;;;;;;116.13;105.93;;;13.70;98.30;;;;;;5017294;28;20511;-78
2021/12/31 07:24:49;;;;;;;115.03;104.78;;;13.70;98.20;;;;;;5017013;28;20133;-78
2021/12/31 07:27:16;;;;;;;114.88;104.78;;;13.70;98.20;;;;;;5016763;28;20078;-78
2021/12/31 07:29:43;;;;;;;115.25;105.07;;;13.70;98.10;;;;;;5016822;28;20050;-78
2021/12/31 07:32:12;;;;;;;115.85;105.53;;;13.70;98.20;;;;;;5036153;28;20112;-78
2021/12/31 07:34:39;;;;;;;114.75;104.45;;;13.70;98.20;;;;;;5016938;28;20083;-78
2021/12/31 07:37:06;;;;;;;115.70;105.60;;;13.70;98.20;;;;;;5015866;28;20145;-78
2021/12/31 07:39:34;;;;;;;113.53;103.38;;;13.60;98.20;;;;;;5016093;28;20058;-79
2021/12/31 07:42:02;;;;;;;114.45;104.05;;;13.60;98.30;;;;;;5016580;28;20124;-78
2021/12/31 07:44:34;;;;;;;115.13;104.95;;;13.60;98.20;;;;;;4999553;28;20124;-78
2021/12/31 07:47:01;;;;;;;115.47;104.97;;;13.70;98.20;;;;;;5018947;28;20115;-78
2021/12/31 07:49:30;;;;;;;113.75;103.55;;;13.60;98.20;;;;;;5030827;28;20053;-79
2021/12/31 07:51:57;;;;;;;112.93;102.82;;;13.70;98.10;;;;;;5037116;28;20053;-78
2021/12/31 07:54:24;;;;;;;113.00;102.60;;;13.70;98.10;;;;;;5036539;28;20053;-78
2021/12/31 07:56:51;;;;;;;113.68;103.30;;;13.60;98.10;;;;;;5036861;28;20084;-78
2021/12/31 07:59:21;;;;;;;111.93;102.00;;;13.60;98.10;;;;;;5034899;28;20099;-78
2021/12/31 08:01:48;;;;;;;112.07;102.22;;;13.60;98.20;;;;;;5046971;28;20493;-78
2021/12/31 08:04:15;;;;;;;111.95;102.13;;;13.60;98.20;;;;;;5015953;28;20069;-79
2021/12/31 08:06:43;;;;;;;114.05;103.82;;;13.60;98.10;;;;;;5030025;28;20058;-79
2021/12/31 08:09:10;;;;;;;112.15;102.25;;;13.60;98.20;;;;;;4995414;28;20057;-79
2021/12/31 08:11:39;;;;;;;111.88;101.97;;;13.60;98.10;;;;;;4996812;28;20054;-78
2021/12/31 08:14:06;;;;;;;110.80;100.82;;;13.60;98.20;;;;;;4996801;28;20540;-79
2021/12/31 08:16:34;;;;;;;111.07;101.28;;;13.60;98.20;;;;;;4997281;28;20146;-79
2021/12/31 08:19:01;;;;;;;111.70;101.63;;;13.60;98.40;;;;;;5025179;28;20109;-78
2021/12/31 08:21:28;;;;;;;112.97;103.03;;;13.60;98.20;;;;;;5019605;28;20057;-79
2021/12/31 08:23:56;;;;;;;111.18;101.38;;;13.60;98.20;;;;;;5015684;28;20053;-79
2021/12/31 08:26:23;;;;;;;112.65;102.63;;;13.60;98.20;;;;;;5033714;28;20077;-79
2021/12/31 08:28:50;;;;;;;112.50;102.50;;;13.60;98.20;;;;;;5018329;28;20061;-78
2021/12/31 08:31:17;;;;;;;112.18;102.18;;;13.60;98.30;;;;;;5026726;28;20141;-79
2021/12/31 08:33:44;;;;;;;112.10;101.78;;;13.60;98.20;;;;;;5039060;28;20213;-80
2021/12/31 08:36:11;;;;;;;111.70;101.60;;;13.60;98.30;;;;;;5016306;28;20188;-78
2021/12/31 08:38:38;;;;;;;111.85;101.90;;;13.60;98.20;;;;;;5016194;28;20054;-79
2021/12/31 08:41:07;;;;;;;111.75;101.95;;;13.60;98.20;;;;;;5016377;28;20153;-79
2021/12/31 08:43:34;;;;;;;112.47;102.28;;;13.70;98.20;;;;;;5015775;28;20046;-78
2021/12/31 08:46:01;;;;;;;111.60;101.60;;;13.70;98.10;;;;;;5034108;28;20062;-79
2021/12/31 08:48:28;;;;;;;112.80;102.70;;;13.70;98.00;;;;;;5042722;28;20713;-79
2021/12/31 08:50:55;;;;;;;112.13;102.20;;;13.70;98.10;;;;;;5049358;28;20520;-79
2021/12/31 08:53:22;;;;;;;111.25;101.43;;;13.80;98.10;;;;;;5036432;28;20050;-79
2021/12/31 08:55:49;;;;;;;112.35;102.28;;;13.70;98.10;;;;;;4996411;28;20129;-79
2021/12/31 08:58:18;;;;;;;113.57;103.35;;;13.80;98.00;;;;;;4996389;28;20054;-79
2021/12/31 09:00:45;;;;;;;113.57;103.57;;;13.80;98.00;;;;;;4999021;28;20468;-78
2021/12/31 09:03:12;;;;;;;110.28;100.47;;;13.80;98.00;;;;;;5018592;28;20056;-78
2021/12/31 09:05:39;;;;;;;112.13;102.32;;;13.80;98.00;;;;;;5015401;28;20053;-77
2021/12/31 09:08:06;;;;;;;110.78;100.95;;;13.80;98.00;;;;;;5015631;28;20519;-77
2021/12/31 09:10:33;;;;;;;112.43;102.63;;;13.80;98.00;;;;;;5018297;28;20474;-77
2021/12/31 09:13:01;;;;;;;110.72;100.75;;;13.70;98.10;;;;;;5011817;28;20097;-78
2021/12/31 09:15:30;;;;;;;111.43;101.45;;;13.80;98.00;;;;;;5022060;28;20046;-77
2021/12/31 09:17:57;;;;;;;113.63;103.63;;;13.70;98.00;;;;;;5038831;28;20574;-78
2021/12/31 09:20:25;;;;;;;110.80;100.90;;;13.70;98.00;;;;;;5021237;28;20052;-78
2021/12/31 09:22:52;;;;;;;111.53;101.63;;;13.70;98.00;;;;;;5039628;28;20061;-78
2021/12/31 09:25:19;;;;;;;113.30;103.00;;;13.80;98.00;;;;;;5040009;28;20057;-78
2021/12/31 09:27:46;;;;;;;112.85;102.80;;;13.70;98.00;;;;;;5020892;28;20056;-78
2021/12/31 09:30:14;;;;;;;114.40;104.20;;;13.80;97.90;;;;;;5020984;28;20140;-78
2021/12/31 09:32:43;;;;;;;112.05;102.15;;;13.80;98.10;;;;;;5039937;28;20530;-78
2021/12/31 09:35:10;;;;;;;114.25;103.88;;;13.70;98.10;;;;;;5021141;28;20061;-78
2021/12/31 09:37:37;;;;;;;112.50;102.47;;;13.80;98.10;;;;;;5022131;28;20050;-78
2021/12/31 09:41:01;;;;;;;111.88;101.97;;;13.80;98.00;;;;;;5006014;28;20113;-78
2021/12/31 09:43:28;;;;;;;112.43;102.47;;;13.70;98.10;;;;;;5022101;28;20084;-78
2021/12/31 09:45:55;;;;;;;113.50;103.30;;;13.70;98.10;;;;;;5021999;28;20467;-78
2021/12/31 09:48:25;;;;;;;114.45;104.35;;;13.70;98.10;;;;;;5021287;28;20077;-78
2021/12/31 09:50:55;;;;;;;114.53;103.35;;;13.70;98.10;;;;;;5005405;28;20088;-78
2021/12/31 09:53:24;;;;;;;112.55;102.57;;;13.70;98.10;;;;;;5038455;28;20065;-77
2021/12/31 09:55:53;;;;;;;112.45;102.47;;;13.80;98.10;;;;;;5021059;28;20547;-78
2021/12/31 09:58:23;;;;;;;114.10;103.82;;;13.70;98.00;;;;;;5026294;28;20041;-76
2021/12/31 10:00:53;;;;;;;111.47;101.63;;;13.80;98.10;;;;;;5023643;28;20045;-79
2021/12/31 10:03:25;;;;;;;111.97;101.88;;;13.70;98.00;;;;;;5026447;28;20600;-77
2021/12/31 10:05:54;;;;;;;116.78;106.18;;;13.80;98.00;;;;;;5053419;28;20064;-77
2021/12/31 10:08:23;;;;;;;114.28;103.95;;;13.70;98.00;;;;;;5022574;28;20050;-78
2021/12/31 10:11:05;;;;;;;113.18;103.00;;;13.70;98.10;;;;;;5034835;28;20041;-78
2021/12/31 10:13:33;;;;;;;114.47;104.18;;;13.70;98.20;;;;;;5040264;28;20053;-78
2021/12/31 10:16:01;;;;;;;112.65;102.60;;;13.60;98.20;;;;;;5042185;28;20057;-81
2021/12/31 10:18:33;;;;;;;115.13;104.93;;;13.70;98.20;;;;;;5052366;28;20670;-80
2021/12/31 10:21:02;;;;;;;112.63;102.63;;;13.60;98.20;;;;;;5026209;28;20578;-81
2021/12/31 10:23:29;;;;;;;113.10;103.13;;;13.60;98.20;;;;;;5039533;28;20053;-79
2021/12/31 10:26:14;;;;;;;114.90;104.35;;;13.60;98.30;;;;;;5018961;28;20479;-79
2021/12/31 10:28:56;;;;;;;113.60;103.60;;;13.60;98.40;;;;;;5018708;28;20124;-79
2021/12/31 10:31:24;;;;;;;114.50;104.35;;;13.60;98.30;;;;;;5037376;28;20133;-80
2021/12/31 10:33:52;;;;;;;114.90;104.65;;;13.60;98.30;;;;;;5035371;28;20487;-80
2021/12/31 10:36:34;;;;;;;113.95;103.82;;;13.60;98.30;;;;;;5000730;28;20049;-79
2021/12/31 10:39:15;;;;;;;114.78;104.57;;;13.60;98.20;;;;;;5017616;28;20050;-80
2021/12/31 10:41:42;;;;;;;114.82;104.63;;;13.70;98.20;;;;;;5009709;28;20115;-80
2021/12/31 10:44:09;;;;;;;112.72;102.85;;;13.70;98.20;;;;;;5034670;28;20049;-81
2021/12/31 10:46:36;;;;;;;112.68;102.45;;;13.60;98.50;;;;;;5050183;28;20137;-80
2021/12/31 10:49:09;;;;;;;111.82;101.72;;;13.60;98.30;;;;;;5034686;28;20046;-80
2021/12/31 10:51:40;;;;;;;113.07;102.88;;;13.60;98.20;;;;;;5033373;28;20092;-79
2021/12/31 10:54:30;;;;;;;112.38;102.38;;;13.60;98.30;;;;;;5016919;28;20060;-79
2021/12/31 10:56:59;;;;;;;112.43;102.32;;;13.70;98.30;;;;;;5030227;28;20297;-79
2021/12/31 10:59:26;;;;;;;113.32;103.15;;;13.60;98.40;;;;;;5036619;28;20136;-80
2021/12/31 11:01:54;;;;;;;112.38;102.53;;;13.60;98.40;;;;;;5033341;28;20053;-81
2021/12/31 11:04:22;;;;;;;113.30;103.10;;;13.60;98.50;;;;;;5000661;28;20098;-80
2021/12/31 11:06:50;;;;;;;113.53;103.55;;;13.60;98.50;;;;;;5016885;28;20093;-80
2021/12/31 11:09:24;;;;;;;114.03;103.63;;;13.60;98.60;;;;;;5041682;28;20054;-80
2021/12/31 11:11:53;;;;;;;113.20;103.28;;;13.60;98.60;;;;;;5017495;28;20046;-80
2021/12/31 11:14:21;;;;;;;114.95;104.72;;;13.60;98.80;;;;;;5031619;28;20060;-80
2021/12/31 11:16:48;;;;;;;113.07;102.93;;;13.50;98.90;;;;;;5021653;28;20562;-80
2021/12/31 11:19:16;;;;;;;113.15;102.93;;;13.50;99.00;;;;;;5036291;28;20052;-80
2021/12/31 11:21:44;;;;;;;113.82;103.68;;;13.40;99.10;;;;;;5005190;28;20058;-81
2021/12/31 11:24:34;;;;;;;113.05;103.10;;;13.40;99.10;;;;;;5000270;28;20054;-80
2021/12/31 11:27:31;;;;;;;114.28;103.97;;;13.40;99.20;;;;;;5004631;28;20105;-81
2021/12/31 11:30:00;;;;;;;114.32;103.88;;;13.40;99.10;;;;;;5024327;28;20049;-80
2021/12/31 11:32:56;;;;;;;113.28;103.07;;;13.50;99.20;;;;;;5016007;28;20049;-80
2021/12/31 11:35:32;;;;;;;113.15;102.85;;;13.40;99.30;;;;;;5016171;28;20089;-79
2021/12/31 11:37:59;;;;;;;114.63;104.30;;;13.40;99.30;;;;;;5033440;28;20057;-79
2021/12/31 11:40:29;;;;;;;113.88;103.63;;;13.40;99.40;;;;;;5026651;28;20046;-80
2021/12/31 11:43:20;;;;;;;114.63;104.38;;;13.40;99.40;;;;;;5039638;28;20133;-80
2021/12/31 11:46:29;;;;;;;115.03;104.60;;;13.30;99.40;;;;;;5049409;28;20046;-79
2021/12/31 11:48:58;;;;;;;114.18;103.93;;;13.30;99.40;;;;;;5034037;28;20058;-80
2021/12/31 11:51:28;;;;;;;114.68;104.35;;;13.30;99.50;;;;;;5015037;28;20045;-81
2021/12/31 11:54:18;;;;;;;113.75;103.63;;;13.30;99.50;;;;;;5032701;28;20054;-79
2021/12/31 11:57:11;;;;;;;116.20;105.85;;;13.30;99.60;;;;;;5045511;28;20064;-79
2021/12/31 11:59:55;;;;;;;113.85;103.65;;;13.30;99.60;;;;;;5009438;28;20054;-80
2021/12/31 12:02:33;;;;;;;113.85;103.72;;;13.30;99.60;;;;;;5033058;28;20050;-79
2021/12/31 12:05:15;;;;;;;114.25;103.97;;;13.30;99.60;;;;;;5025250;28;20054;-79
2021/12/31 12:07:46;;;;;;;115.15;104.68;;;13.30;99.60;;;;;;5014783;28;20133;-79
2021/12/31 12:10:29;;;;;;;115.95;105.55;;;13.20;99.60;;;;;;5015129;28;20090;-79
2021/12/31 12:13:29;;;;;;;119.22;108.10;;;13.30;99.50;;;;;;5010786;28;20045;-78
2021/12/31 12:15:57;;;;;;;117.47;106.82;;;13.30;99.40;;;;;;5010888;28;20060;-76
2021/12/31 12:18:52;;;;;;;116.55;106.13;;;13.20;99.50;;;;;;5044757;28;20065;-80
2021/12/31 12:21:39;;;;;;;116.40;106.00;;;13.20;99.80;;;;;;4968595;28;20058;-79
2021/12/31 12:24:07;;;;;;;119.32;108.63;;;13.20;99.60;;;;;;4994533;28;20579;-80
2021/12/31 12:26:35;;;;;;;116.55;106.15;;;13.20;99.70;;;;;;4994515;28;20050;-80
2021/12/31 12:29:04;;;;;;;118.05;107.35;;;13.20;99.90;;;;;;4981532;28;20530;-81
2021/12/31 12:31:38;;;;;;;117.00;106.63;;;13.20;99.90;;;;;;4997857;28;20049;-81